Time,TemperatureF,DewpointF,PressureIn,WindDirection,WindDirectionDegrees,WindSpeedMPH,WindSpeedGustMPH,Humidity,HourlyPrecipIn,Conditions,Clouds,dailyrainin,SoftwareType,DateUTC
2013-01-30 00:00:00,38.8,38.5,29.46,NNW,327,3.0,9.0,99,0.07,RA,,1.09,WeatherDisplay:10.37,2013-01-30 05:00:00,
2013-01-30 00:03:00,38.7,38.4,29.47,NNW,345,5.5,8.1,99,0.07,RA,,1.09,WeatherDisplay:10.37,2013-01-30 05:03:00,
2013-01-30 00:08:00,38.7,38.4,29.46,NW,316,4.9,8.1,99,0.08,RA,,1.10,WeatherDisplay:10.37,2013-01-30 05:08:00,
2013-01-30 00:13:00,38.5,38.2,29.44,NNW,340,3.8,6.0,99,0.09,RA,,1.11,WeatherDisplay:10.37,2013-01-30 05:13:00,
2013-01-30 00:18:00,38.4,38.1,29.44,NNE,26,6.7,9.2,99,0.10,RA,,1.12,WeatherDisplay:10.37,2013-01-30 05:18:00,
2013-01-30 00:23:00,38.3,38.0,29.43,North,11,5.3,9.2,99,0.09,RA,,1.12,WeatherDisplay:10.37,2013-01-30 05:23:00,
2013-01-30 00:28:00,38.2,37.9,29.41,NNE,29,6.2,8.1,99,0.09,,,1.13,WeatherDisplay:10.37,2013-01-30 05:28:00,
2013-01-30 00:34:00,38.1,37.8,29.42,North,11,8.9,11.5,99,0.08,RA,,1.13,WeatherDisplay:10.37,2013-01-30 05:34:00,
2013-01-30 00:39:00,38.0,37.7,29.42,NNE,33,7.1,10.4,99,0.09,RA,,1.14,WeatherDisplay:10.37,2013-01-30 05:39:00,
2013-01-30 00:44:00,37.9,37.6,29.43,NNE,19,7.1,9.2,99,0.08,RA,,1.15,WeatherDisplay:10.37,2013-01-30 05:44:00,
2013-01-30 00:49:00,37.8,37.5,29.43,NE,39,6.5,10.4,99,0.09,RA,,1.15,WeatherDisplay:10.37,2013-01-30 05:49:00,
2013-01-30 00:54:00,37.7,37.4,29.44,East,86,8.3,10.4,99,0.09,RA,,1.16,WeatherDisplay:10.37,2013-01-30 05:54:00,
2013-01-30 00:59:00,37.7,37.4,29.45,NW,318,5.2,9.2,99,0.08,RA,,1.16,WeatherDisplay:10.37,2013-01-30 05:59:00,
2013-01-30 01:04:00,37.6,37.3,29.45,NE,37,4.6,8.0,99,0.08,RA,,0.01,WeatherDisplay:10.37,2013-01-30 06:04:00,
2013-01-30 01:09:00,37.6,37.3,29.46,North,5,7.1,10.4,99,0.07,RA,,0.01,WeatherDisplay:10.37,2013-01-30 06:09:00,
2013-01-30 01:14:00,37.5,37.2,29.46,NNW,328,5.0,8.0,99,0.06,,,0.01,WeatherDisplay:10.37,2013-01-30 06:14:00,
2013-01-30 01:19:00,37.4,37.1,29.45,WNW,284,5.0,11.5,99,0.06,RA,,0.03,WeatherDisplay:10.37,2013-01-30 06:19:00,
2013-01-30 01:25:00,37.2,36.9,29.43,NNE,20,8.4,10.4,99,0.07,RA,,0.04,WeatherDisplay:10.37,2013-01-30 06:25:00,
2013-01-30 01:30:00,37.1,36.8,29.42,NNE,33,8.5,9.2,99,0.09,RA,,0.05,WeatherDisplay:10.37,2013-01-30 06:30:00,
2013-01-30 01:35:00,37.0,36.7,29.42,North,359,6.0,6.9,99,0.09,RA,,0.06,WeatherDisplay:10.37,2013-01-30 06:35:00,
2013-01-30 01:40:00,36.9,36.6,29.43,NE,48,4.2,6.9,99,0.08,RA,,0.06,WeatherDisplay:10.37,2013-01-30 06:40:00,
2013-01-30 01:45:00,36.8,36.5,29.43,NNW,334,5.0,5.8,99,0.09,RA,,0.07,WeatherDisplay:10.37,2013-01-30 06:45:00,
2013-01-30 01:50:00,36.8,36.5,29.43,NNE,14,3.0,9.0,99,0.08,RA,,0.07,WeatherDisplay:10.37,2013-01-30 06:50:00,
2013-01-30 01:55:00,36.7,36.4,29.42,NNE,12,3.0,8.0,99,0.08,RA,,0.08,WeatherDisplay:10.37,2013-01-30 06:55:00,
2013-01-30 02:01:00,36.6,36.3,29.42,North,6,2.8,5.0,99,0.08,RA,,0.08,WeatherDisplay:10.37,2013-01-30 07:01:00,
2013-01-30 02:06:00,36.6,36.3,29.41,North,355,2.5,3.5,99,0.07,,,0.08,WeatherDisplay:10.37,2013-01-30 07:06:00,
2013-01-30 02:11:00,36.5,36.2,29.40,ENE,61,3.3,6.9,99,0.08,RA,,0.09,WeatherDisplay:10.37,2013-01-30 07:11:00,
2013-01-30 02:16:00,36.5,36.2,29.41,NNE,16,1.5,4.6,99,0.07,RA,,0.09,WeatherDisplay:10.37,2013-01-30 07:16:00,
2013-01-30 02:21:00,36.5,36.2,29.41,NNE,28,3.9,5.8,99,0.06,,,0.09,WeatherDisplay:10.37,2013-01-30 07:21:00,
2013-01-30 02:26:00,36.5,36.2,29.41,North,349,2.4,3.5,99,0.05,,,0.09,WeatherDisplay:10.37,2013-01-30 07:26:00,
2013-01-30 02:32:00,36.5,36.2,29.41,NNW,345,2.4,3.5,99,0.04,,,0.09,WeatherDisplay:10.37,2013-01-30 07:32:00,
2013-01-30 02:37:00,36.4,36.1,29.41,NE,36,4.2,5.8,99,0.03,,,0.09,WeatherDisplay:10.37,2013-01-30 07:37:00,
2013-01-30 02:42:00,36.4,36.1,29.41,NNW,340,3.0,5.8,99,0.02,,,0.09,WeatherDisplay:10.37,2013-01-30 07:42:00,
2013-01-30 02:47:00,36.3,36.0,29.42,NE,45,3.3,5.8,99,0.02,,,0.09,WeatherDisplay:10.37,2013-01-30 07:47:00,
2013-01-30 02:52:00,36.2,35.9,29.42,North,1,3.2,5.8,99,0.02,,,0.09,WeatherDisplay:10.37,2013-01-30 07:52:00,
2013-01-30 02:57:00,36.2,35.9,29.43,North,7,1.6,3.5,99,0.01,,,0.09,WeatherDisplay:10.37,2013-01-30 07:57:00,
2013-01-30 03:02:00,36.1,35.8,29.42,NNW,333,3.1,4.6,99,0.01,,,0.09,WeatherDisplay:10.37,2013-01-30 08:02:00,
2013-01-30 03:07:00,36.0,35.7,29.42,NE,50,2.9,4.6,99,0.02,RA,,0.10,WeatherDisplay:10.37,2013-01-30 08:07:00,
2013-01-30 03:13:00,36.0,35.7,29.42,NNE,22,2.0,3.5,99,0.01,RA,,0.10,WeatherDisplay:10.37,2013-01-30 08:13:00,
2013-01-30 03:18:00,35.9,35.6,29.42,NW,324,1.3,2.3,99,0.01,,,0.10,WeatherDisplay:10.37,2013-01-30 08:18:00,
2013-01-30 03:23:00,35.9,35.6,29.43,NNE,16,1.8,3.5,99,0.01,,,0.10,WeatherDisplay:10.37,2013-01-30 08:23:00,
2013-01-30 03:28:00,35.9,35.6,29.44,NNE,23,2.9,3.5,99,0.01,,,0.10,WeatherDisplay:10.37,2013-01-30 08:28:00,
2013-01-30 03:33:00,35.8,35.5,29.44,NNW,348,2.4,3.5,99,0.01,,,0.10,WeatherDisplay:10.37,2013-01-30 08:33:00,
2013-01-30 03:38:00,35.8,35.5,29.45,NW,322,2.7,4.6,99,0.01,,,0.10,WeatherDisplay:10.37,2013-01-30 08:38:00,
2013-01-30 03:43:00,35.7,35.4,29.45,NW,305,3.7,6.9,99,0.01,,,0.10,WeatherDisplay:10.37,2013-01-30 08:43:00,
2013-01-30 03:48:00,35.7,35.4,29.44,NW,322,3.0,4.6,99,0.02,RA,,0.11,WeatherDisplay:10.37,2013-01-30 08:48:00,
2013-01-30 03:53:00,35.6,35.3,29.44,NNE,23,2.7,3.5,99,0.02,RA,,0.11,WeatherDisplay:10.37,2013-01-30 08:53:00,
2013-01-30 03:58:00,35.5,35.2,29.44,NW,313,3.7,5.8,99,0.03,RA,,0.12,WeatherDisplay:10.37,2013-01-30 08:58:00,
2013-01-30 04:04:00,35.4,35.1,29.44,NNW,347,3.8,4.6,99,0.02,RA,,0.12,WeatherDisplay:10.37,2013-01-30 09:04:00,
2013-01-30 04:09:00,35.4,35.1,29.44,NNE,28,5.5,8.1,99,0.02,,,0.12,WeatherDisplay:10.37,2013-01-30 09:09:00,
2013-01-30 04:14:00,35.4,35.1,29.45,NW,324,3.7,5.8,99,0.02,,,0.12,WeatherDisplay:10.37,2013-01-30 09:14:00,
2013-01-30 04:19:00,35.4,35.1,29.45,NE,45,2.7,5.8,99,0.03,RA,,0.13,WeatherDisplay:10.37,2013-01-30 09:19:00,
2013-01-30 04:24:00,35.4,35.1,29.42,North,7,3.9,4.0,99,0.03,RA,,0.13,WeatherDisplay:10.37,2013-01-30 09:24:00,
2013-01-30 04:29:00,35.3,35.0,29.40,NNE,33,4.7,8.1,99,0.03,,,0.13,WeatherDisplay:10.37,2013-01-30 09:29:00,
2013-01-30 04:34:00,35.2,34.7,29.39,ENE,61,6.2,9.2,98,0.03,,,0.13,WeatherDisplay:10.37,2013-01-30 09:34:00,
2013-01-30 04:39:00,35.1,34.6,29.38,ENE,63,5.3,7.0,98,0.03,,,0.13,WeatherDisplay:10.37,2013-01-30 09:39:00,
2013-01-30 04:44:00,35.0,34.5,29.36,NNE,22,7.1,9.2,98,0.03,,,0.13,WeatherDisplay:10.37,2013-01-30 09:44:00,
2013-01-30 04:49:00,34.9,34.4,29.36,ENE,58,4.6,5.8,98,0.02,,,0.13,WeatherDisplay:10.37,2013-01-30 09:49:00,
2013-01-30 04:54:00,34.9,34.4,29.34,NE,45,8.1,10.4,98,0.02,,,0.13,WeatherDisplay:10.37,2013-01-30 09:54:00,
2013-01-30 04:59:00,34.8,34.3,29.35,ENE,60,5.4,7.0,98,0.01,,,0.13,WeatherDisplay:10.37,2013-01-30 09:59:00,
2013-01-30 05:04:00,34.8,34.3,29.33,NE,45,6.6,8.1,98,0.01,,,0.13,WeatherDisplay:10.37,2013-01-30 10:04:00,
2013-01-30 05:09:00,34.8,34.3,29.33,NE,39,6.8,8.1,98,0.01,,,0.13,WeatherDisplay:10.37,2013-01-30 10:09:00,
2013-01-30 05:14:00,34.8,34.3,29.34,NNE,33,4.7,6.9,98,0.01,,,0.13,WeatherDisplay:10.37,2013-01-30 10:14:00,
2013-01-30 05:19:00,34.8,34.3,29.34,NNE,23,3.0,4.6,98,0.00,,,0.13,WeatherDisplay:10.37,2013-01-30 10:19:00,
2013-01-30 05:25:00,34.8,34.3,29.36,NNW,342,2.6,3.5,98,0.00,,,0.13,WeatherDisplay:10.37,2013-01-30 10:25:00,
2013-01-30 05:30:00,34.8,34.3,29.36,NE,41,2.9,3.5,98,0.00,,,0.13,WeatherDisplay:10.37,2013-01-30 10:30:00,
2013-01-30 05:35:00,34.8,34.3,29.34,NNW,340,3.0,4.6,98,0.00,,,0.13,WeatherDisplay:10.37,2013-01-30 10:35:00,
2013-01-30 05:40:00,34.8,34.3,29.34,NNE,33,2.5,8.1,98,0.00,,,0.13,WeatherDisplay:10.37,2013-01-30 10:40:00,
2013-01-30 05:45:00,34.8,34.3,29.33,NE,52,5.0,7.0,98,0.00,,,0.13,WeatherDisplay:10.37,2013-01-30 10:45:00,
2013-01-30 05:50:00,34.8,34.3,29.33,NE,44,5.0,9.0,98,0.00,,,0.13,WeatherDisplay:10.37,2013-01-30 10:50:00,
2013-01-30 05:55:00,34.8,34.3,29.34,NE,43,3.0,7.0,98,0.00,,,0.13,WeatherDisplay:10.37,2013-01-30 10:55:00,
2013-01-30 06:00:00,34.9,34.4,29.34,NE,43,6.0,10.0,98,0.00,,,0.13,WeatherDisplay:10.37,2013-01-30 11:00:00,
2013-01-30 06:05:00,34.9,34.4,29.33,NE,51,7.2,10.4,98,0.00,,,0.13,WeatherDisplay:10.37,2013-01-30 11:05:00,
2013-01-30 06:10:00,34.9,34.4,29.32,NE,34,6.9,9.0,98,0.00,,,0.13,WeatherDisplay:10.37,2013-01-30 11:10:00,
2013-01-30 06:15:00,34.8,34.3,29.30,ENE,64,8.4,11.5,98,0.00,,,0.13,WeatherDisplay:10.37,2013-01-30 11:15:00,
2013-01-30 06:20:00,34.8,34.3,29.30,ENE,71,7.5,10.4,98,0.00,,,0.13,WeatherDisplay:10.37,2013-01-30 11:20:00,
2013-01-30 06:25:00,34.8,34.3,29.31,NE,52,6.1,8.1,98,0.00,,,0.13,WeatherDisplay:10.37,2013-01-30 11:25:00,
2013-01-30 06:30:00,34.9,34.4,29.33,NE,41,3.7,5.8,98,0.00,,,0.13,WeatherDisplay:10.37,2013-01-30 11:30:00,
2013-01-30 06:35:00,34.9,34.4,29.33,NE,49,3.2,4.0,98,0.00,,,0.13,WeatherDisplay:10.37,2013-01-30 11:35:00,
2013-01-30 06:40:00,34.9,34.4,29.32,NE,53,4.4,6.0,98,0.00,,,0.13,WeatherDisplay:10.37,2013-01-30 11:40:00,
2013-01-30 06:45:00,35.0,34.5,29.32,NE,52,4.4,6.9,98,0.00,,,0.13,WeatherDisplay:10.37,2013-01-30 11:45:00,
2013-01-30 06:50:00,35.0,34.5,29.32,ENE,60,7.0,9.2,98,0.00,,,0.13,WeatherDisplay:10.37,2013-01-30 11:50:00,
2013-01-30 06:55:00,35.1,34.6,29.32,NE,49,4.9,8.1,98,0.00,,,0.13,WeatherDisplay:10.37,2013-01-30 11:55:00,
2013-01-30 07:00:00,35.1,34.6,29.33,ENE,64,5.0,6.9,98,0.00,,,0.13,WeatherDisplay:10.37,2013-01-30 12:00:00,
2013-01-30 07:05:00,35.2,34.7,29.33,ENE,65,4.0,6.9,98,0.00,,,0.13,WeatherDisplay:10.37,2013-01-30 12:05:00,
2013-01-30 07:10:00,35.1,34.3,29.32,ENE,58,6.5,9.2,97,0.00,,,0.13,WeatherDisplay:10.37,2013-01-30 12:10:00,
2013-01-30 07:15:00,35.1,34.3,29.32,NE,44,3.7,5.0,97,0.00,,,0.13,WeatherDisplay:10.37,2013-01-30 12:15:00,
2013-01-30 07:20:00,35.0,34.2,29.31,ENE,76,4.0,4.6,97,0.01,RA,,0.14,WeatherDisplay:10.37,2013-01-30 12:20:00,
2013-01-30 07:25:00,35.0,34.5,29.31,ENE,63,5.5,8.0,98,0.01,RA,,0.14,WeatherDisplay:10.37,2013-01-30 12:25:00,
2013-01-30 07:30:00,35.0,34.5,29.30,ENE,65,6.1,9.2,98,0.02,RA,,0.15,WeatherDisplay:10.37,2013-01-30 12:30:00,
2013-01-30 07:35:00,35.0,34.5,29.30,ENE,65,6.3,10.4,98,0.03,RA,,0.16,WeatherDisplay:10.37,2013-01-30 12:35:00,
2013-01-30 07:40:00,35.0,34.5,29.30,ENE,65,6.3,9.2,98,0.03,RA,,0.16,WeatherDisplay:10.37,2013-01-30 12:40:00,
2013-01-30 07:45:00,35.0,34.5,29.30,ENE,63,6.6,9.2,98,0.03,,,0.16,WeatherDisplay:10.37,2013-01-30 12:45:00,
2013-01-30 07:50:00,35.0,34.5,29.30,ESE,111,3.5,6.9,98,0.03,,,0.17,WeatherDisplay:10.37,2013-01-30 12:50:00,
2013-01-30 07:55:00,35.0,34.5,29.31,NE,43,1.8,3.5,98,0.05,RA,,0.18,WeatherDisplay:10.37,2013-01-30 12:55:00,
2013-01-30 08:00:00,35.0,34.5,29.30,ENE,65,5.0,7.0,98,0.06,RA,,0.20,WeatherDisplay:10.37,2013-01-30 13:00:00,
2013-01-30 08:05:00,35.0,34.5,29.28,NE,52,5.2,6.0,98,0.07,RA,,0.20,WeatherDisplay:10.37,2013-01-30 13:05:00,
2013-01-30 08:10:00,35.0,34.5,29.29,ENE,64,4.3,5.8,98,0.08,RA,,0.21,WeatherDisplay:10.37,2013-01-30 13:10:00,
2013-01-30 08:15:00,35.1,34.6,29.29,NE,45,2.9,4.6,98,0.09,RA,,0.22,WeatherDisplay:10.37,2013-01-30 13:15:00,
2013-01-30 08:20:00,35.0,34.5,29.29,ENE,77,3.5,4.0,98,0.09,RA,,0.23,WeatherDisplay:10.37,2013-01-30 13:20:00,
2013-01-30 08:26:00,35.1,34.6,29.28,ENE,63,5.2,7.0,98,0.11,RA,,0.25,WeatherDisplay:10.37,2013-01-30 13:26:00,
2013-01-30 08:31:00,35.1,34.6,29.27,ENE,61,6.1,10.4,98,0.11,RA,,0.26,WeatherDisplay:10.37,2013-01-30 13:31:00,
2013-01-30 08:36:00,35.0,34.5,29.27,ENE,78,6.2,7.0,98,0.11,RA,,0.28,WeatherDisplay:10.37,2013-01-30 13:36:00,
2013-01-30 08:41:00,35.1,34.6,29.27,NE,54,4.8,6.9,98,0.13,RA,,0.29,WeatherDisplay:10.37,2013-01-30 13:41:00,
2013-01-30 08:46:00,35.1,34.6,29.29,NW,316,3.0,3.5,98,0.15,RA,,0.31,WeatherDisplay:10.37,2013-01-30 13:46:00,
2013-01-30 08:51:00,35.1,34.6,29.31,NNE,22,1.5,3.5,98,0.17,RA,,0.34,WeatherDisplay:10.37,2013-01-30 13:51:00,
2013-01-30 08:56:00,35.0,34.5,29.33,West,277,13.8,16.1,98,0.19,RA,,0.37,WeatherDisplay:10.37,2013-01-30 13:56:00,
2013-01-30 09:01:00,34.7,34.2,29.33,WNW,293,12.5,18.4,98,0.18,RA,,0.38,WeatherDisplay:10.37,2013-01-30 14:01:00,
2013-01-30 09:06:00,34.1,33.6,29.34,WNW,288,9.8,16.1,98,0.17,RA,,0.38,WeatherDisplay:10.37,2013-01-30 14:06:00,
2013-01-30 09:11:00,33.6,33.1,29.34,WNW,302,8.7,11.5,98,0.17,,,0.38,WeatherDisplay:10.37,2013-01-30 14:11:00,
2013-01-30 09:16:00,33.4,32.9,29.34,NW,305,10.0,12.7,98,0.16,,,0.38,WeatherDisplay:10.37,2013-01-30 14:16:00,
2013-01-30 09:21:00,33.2,32.7,29.33,NW,318,9.1,11.5,98,0.15,,,0.38,WeatherDisplay:10.37,2013-01-30 14:21:00,
2013-01-30 09:26:00,33.0,32.5,29.33,NE,36,7.7,11.0,98,0.13,,,0.38,WeatherDisplay:10.37,2013-01-30 14:26:00,
2013-01-30 09:31:00,32.9,32.4,29.33,WNW,290,6.3,9.2,98,0.13,RA,,0.39,WeatherDisplay:10.37,2013-01-30 14:31:00,
2013-01-30 09:36:00,32.8,32.3,29.34,NW,311,5.9,11.5,98,0.11,RA,,0.39,WeatherDisplay:10.37,2013-01-30 14:36:00,
2013-01-30 09:42:00,32.8,32.3,29.33,NW,304,6.0,10.4,98,0.10,,,0.39,WeatherDisplay:10.37,2013-01-30 14:42:00,
2013-01-30 09:47:00,32.8,32.3,29.33,NNE,12,7.0,13.8,98,0.08,,,0.39,WeatherDisplay:10.37,2013-01-30 14:47:00,
2013-01-30 09:52:00,32.7,32.2,29.32,NNE,16,5.9,9.2,98,0.05,,,0.39,WeatherDisplay:10.37,2013-01-30 14:52:00,
2013-01-30 09:57:00,32.8,32.3,29.33,NW,316,7.9,11.5,98,0.02,,,0.39,WeatherDisplay:10.37,2013-01-30 14:57:00,
2013-01-30 10:02:00,32.8,32.3,29.33,NNW,340,7.3,10.4,98,0.01,,,0.39,WeatherDisplay:10.37,2013-01-30 15:02:00,
2013-01-30 10:07:00,32.8,32.3,29.31,NE,54,8.7,12.7,98,0.01,,,0.39,WeatherDisplay:10.37,2013-01-30 15:07:00,
2013-01-30 10:12:00,32.8,32.3,29.31,NNE,30,10.3,15.0,98,0.01,,,0.39,WeatherDisplay:10.37,2013-01-30 15:12:00,
2013-01-30 10:17:00,32.8,32.3,29.30,ENE,69,12.5,15.0,98,0.01,,,0.39,WeatherDisplay:10.37,2013-01-30 15:17:00,
2013-01-30 10:22:00,32.8,32.3,29.30,ENE,58,10.3,13.8,98,0.01,,,0.39,WeatherDisplay:10.37,2013-01-30 15:22:00,
2013-01-30 10:27:00,32.8,32.3,29.30,NNE,30,11.3,13.8,98,0.01,,,0.39,WeatherDisplay:10.37,2013-01-30 15:27:00,
2013-01-30 10:32:00,32.8,32.3,29.30,North,354,9.4,12.7,98,0.00,,,0.39,WeatherDisplay:10.37,2013-01-30 15:32:00,
2013-01-30 10:37:00,32.9,32.4,29.30,NNE,33,9.2,11.5,98,0.00,,,0.39,WeatherDisplay:10.37,2013-01-30 15:37:00,
2013-01-30 10:42:00,32.9,32.4,29.30,NE,35,11.5,13.8,98,0.00,,,0.39,WeatherDisplay:10.37,2013-01-30 15:42:00,
2013-01-30 10:47:00,32.9,32.4,29.31,ENE,60,8.5,11.5,98,0.00,,,0.39,WeatherDisplay:10.37,2013-01-30 15:47:00,
2013-01-30 10:52:00,33.0,32.5,29.30,NNE,20,12.9,16.1,98,0.01,RA,,0.40,WeatherDisplay:10.37,2013-01-30 15:52:00,
2013-01-30 10:57:00,33.1,32.6,29.30,NW,323,11.9,17.3,98,0.01,RA,,0.40,WeatherDisplay:10.37,2013-01-30 15:57:00,
2013-01-30 11:02:00,33.2,32.4,29.31,NNE,33,15.3,18.4,97,0.02,RA,,0.41,WeatherDisplay:10.37,2013-01-30 16:02:00,
2013-01-30 11:07:00,33.2,32.4,29.31,NW,308,10.4,15.0,97,0.02,RA,,0.41,WeatherDisplay:10.37,2013-01-30 16:07:00,
2013-01-30 11:12:00,33.3,32.5,29.32,North,8,11.8,16.1,97,0.02,,,0.41,WeatherDisplay:10.37,2013-01-30 16:12:00,
2013-01-30 11:17:00,33.3,32.5,29.32,NNE,26,12.5,17.3,97,0.02,,,0.41,WeatherDisplay:10.37,2013-01-30 16:17:00,
2013-01-30 11:22:00,33.3,32.3,29.33,ENE,69,10.2,12.0,96,0.03,RA,,0.42,WeatherDisplay:10.37,2013-01-30 16:22:00,
2013-01-30 11:27:00,33.3,32.3,29.32,North,350,7.2,13.8,96,0.03,RA,,0.42,WeatherDisplay:10.37,2013-01-30 16:27:00,
2013-01-30 11:32:00,33.2,31.9,29.33,NNW,341,11.4,19.6,95,0.03,,,0.42,WeatherDisplay:10.37,2013-01-30 16:32:00,
2013-01-30 11:37:00,33.1,31.8,29.34,NW,314,7.4,10.4,95,0.03,,,0.42,WeatherDisplay:10.37,2013-01-30 16:37:00,
2013-01-30 11:42:00,32.9,31.4,29.34,NE,36,7.4,11.5,94,0.03,,,0.42,WeatherDisplay:10.37,2013-01-30 16:42:00,
2013-01-30 11:47:00,32.7,31.2,29.35,WNW,298,8.9,11.0,94,0.03,,,0.42,WeatherDisplay:10.37,2013-01-30 16:47:00,
2013-01-30 11:52:00,32.3,31.0,29.36,WNW,297,9.1,11.5,95,0.02,,,0.42,WeatherDisplay:10.37,2013-01-30 16:52:00,
2013-01-30 11:57:00,32.0,30.7,29.36,NW,307,9.2,11.5,95,0.02,,,0.42,WeatherDisplay:10.37,2013-01-30 16:57:00,
2013-01-30 12:03:00,31.8,30.5,29.36,NNE,30,8.9,12.7,95,0.01,,,0.42,WeatherDisplay:10.37,2013-01-30 17:03:00,
2013-01-30 12:08:00,31.7,30.4,29.36,NNW,332,7.1,11.0,95,0.01,,,0.42,WeatherDisplay:10.37,2013-01-30 17:08:00,
2013-01-30 12:13:00,31.6,30.3,29.36,NW,318,10.9,15.0,95,0.01,,,0.42,WeatherDisplay:10.37,2013-01-30 17:13:00,
2013-01-30 12:18:00,31.4,30.1,29.36,NE,39,9.6,17.0,95,0.01,,,0.42,WeatherDisplay:10.37,2013-01-30 17:18:00,
2013-01-30 12:23:00,31.3,29.5,29.36,NNE,33,8.6,11.5,93,0.00,,,0.42,WeatherDisplay:10.37,2013-01-30 17:23:00,
2013-01-30 12:28:00,31.2,29.4,29.36,North,1,12.2,18.0,93,0.00,,,0.42,WeatherDisplay:10.37,2013-01-30 17:28:00,
2013-01-30 12:33:00,31.1,29.3,29.36,ENE,58,9.1,15.0,93,0.00,,,0.42,WeatherDisplay:10.37,2013-01-30 17:33:00,
2013-01-30 12:38:00,31.0,28.9,29.37,NW,316,10.2,15.0,92,0.00,,,0.42,WeatherDisplay:10.37,2013-01-30 17:38:00,
2013-01-30 12:43:00,31.0,29.2,29.37,East,83,8.8,11.5,93,0.00,,,0.42,WeatherDisplay:10.37,2013-01-30 17:43:00,
2013-01-30 12:48:00,30.9,29.1,29.37,NW,312,8.4,11.5,93,0.00,,,0.42,WeatherDisplay:10.37,2013-01-30 17:48:00,
2013-01-30 12:53:00,30.8,28.5,29.36,North,357,11.5,13.8,91,0.00,,,0.42,WeatherDisplay:10.37,2013-01-30 17:53:00,
2013-01-30 12:58:00,30.8,28.2,29.36,NNW,334,7.4,11.5,90,0.00,,,0.42,WeatherDisplay:10.37,2013-01-30 17:58:00,
2013-01-30 13:04:00,30.8,28.5,29.36,NW,320,7.4,10.4,91,0.00,,,0.42,WeatherDisplay:10.37,2013-01-30 18:04:00,
2013-01-30 13:09:00,30.8,28.8,29.37,NW,318,8.4,12.7,92,0.00,,,0.42,WeatherDisplay:10.37,2013-01-30 18:09:00,
2013-01-30 13:14:00,30.6,28.6,29.37,NNE,23,9.4,12.7,92,0.00,,,0.42,WeatherDisplay:10.37,2013-01-30 18:14:00,
2013-01-30 13:20:00,30.6,28.6,29.37,NNW,334,7.3,10.4,92,0.00,,,0.42,WeatherDisplay:10.37,2013-01-30 18:20:00,
2013-01-30 13:25:00,30.6,28.6,29.37,North,354,11.6,17.3,92,0.00,,,0.42,WeatherDisplay:10.37,2013-01-30 18:25:00,
2013-01-30 13:30:00,30.5,28.7,29.37,North,358,8.4,12.7,93,0.00,,,0.42,WeatherDisplay:10.37,2013-01-30 18:30:00,
2013-01-30 13:35:00,30.6,29.1,29.37,NW,311,8.0,10.4,94,0.00,,,0.42,WeatherDisplay:10.37,2013-01-30 18:35:00,
2013-01-30 13:40:00,30.4,28.9,29.38,NW,321,10.8,18.4,94,0.00,,,0.42,WeatherDisplay:10.37,2013-01-30 18:40:00,
2013-01-30 13:45:00,30.3,28.8,29.38,NW,323,10.0,17.0,94,0.00,,,0.42,WeatherDisplay:10.37,2013-01-30 18:45:00,
2013-01-30 13:50:00,30.2,28.7,29.38,NW,314,10.8,17.3,94,0.00,,,0.42,WeatherDisplay:10.37,2013-01-30 18:50:00,
2013-01-30 13:55:00,30.2,28.7,29.38,NW,308,12.0,20.0,94,0.00,,,0.42,WeatherDisplay:10.37,2013-01-30 18:55:00,
2013-01-30 14:00:00,30.1,28.3,29.39,NW,305,12.4,19.6,93,0.00,,,0.42,WeatherDisplay:10.37,2013-01-30 19:00:00,
2013-01-30 14:05:00,30.1,28.6,29.38,West,274,12.1,15.0,94,0.00,,,0.42,WeatherDisplay:10.37,2013-01-30 19:05:00,
2013-01-30 14:10:00,29.9,28.4,29.39,NNW,348,11.9,17.3,94,0.00,,,0.42,WeatherDisplay:10.37,2013-01-30 19:10:00,
2013-01-30 14:16:00,29.8,28.3,29.39,NW,312,13.9,19.6,94,0.00,,,0.42,WeatherDisplay:10.37,2013-01-30 19:16:00,
2013-01-30 14:21:00,29.5,28.0,29.40,WNW,302,16.2,18.4,94,0.00,,,0.42,WeatherDisplay:10.37,2013-01-30 19:21:00,
2013-01-30 14:26:00,29.0,27.5,29.40,NW,304,17.6,19.6,94,0.00,,,0.42,WeatherDisplay:10.37,2013-01-30 19:26:00,
2013-01-30 14:31:00,28.8,27.0,29.41,NW,307,13.2,17.3,93,0.00,,,0.42,WeatherDisplay:10.37,2013-01-30 19:31:00,
2013-01-30 14:36:00,28.6,27.1,29.41,NW,322,14.1,19.0,94,0.00,,,0.42,WeatherDisplay:10.37,2013-01-30 19:36:00,
2013-01-30 14:41:00,28.3,26.5,29.41,NW,316,14.0,19.6,93,0.00,,,0.42,WeatherDisplay:10.37,2013-01-30 19:41:00,
2013-01-30 14:46:00,27.9,26.4,29.41,NW,307,18.2,21.9,94,0.00,,,0.42,WeatherDisplay:10.37,2013-01-30 19:46:00,
2013-01-30 14:51:00,27.5,26.0,29.42,NW,311,13.9,19.6,94,0.00,,,0.42,WeatherDisplay:10.37,2013-01-30 19:51:00,
2013-01-30 14:56:00,27.3,25.8,29.42,NNW,331,15.0,19.6,94,0.00,,,0.42,WeatherDisplay:10.37,2013-01-30 19:56:00,
2013-01-30 15:01:00,27.1,25.6,29.42,WNW,302,16.9,19.6,94,0.00,,,0.42,WeatherDisplay:10.37,2013-01-30 20:01:00,
2013-01-30 15:06:00,26.9,25.4,29.42,NW,305,17.0,19.6,94,0.00,,,0.42,WeatherDisplay:10.37,2013-01-30 20:06:00,
2013-01-30 15:12:00,26.9,25.4,29.43,NW,309,15.6,19.0,94,0.00,,,0.42,WeatherDisplay:10.37,2013-01-30 20:12:00,
2013-01-30 15:17:00,26.6,25.1,29.43,NW,316,18.3,21.9,94,0.00,,,0.42,WeatherDisplay:10.37,2013-01-30 20:17:00,
2013-01-30 15:22:00,26.5,25.0,29.44,NW,308,17.8,20.0,94,0.00,,,0.42,WeatherDisplay:10.37,2013-01-30 20:22:00,
2013-01-30 15:27:00,26.4,24.9,29.44,NW,324,17.0,20.7,94,0.00,,,0.42,WeatherDisplay:10.37,2013-01-30 20:27:00,
2013-01-30 15:32:00,26.3,24.8,29.45,NW,313,18.3,19.6,94,0.00,,,0.42,WeatherDisplay:10.37,2013-01-30 20:32:00,
2013-01-30 15:37:00,26.3,25.1,29.45,WNW,302,17.4,21.9,95,0.00,,,0.42,WeatherDisplay:10.37,2013-01-30 20:37:00,
2013-01-30 15:42:00,26.2,25.0,29.45,WNW,302,15.5,19.6,95,0.00,,,0.42,WeatherDisplay:10.37,2013-01-30 20:42:00,
2013-01-30 15:47:00,26.1,24.6,29.46,WNW,300,17.1,25.3,94,0.00,,,0.42,WeatherDisplay:10.37,2013-01-30 20:47:00,
2013-01-30 15:52:00,25.9,24.7,29.46,NW,309,17.6,21.9,95,0.00,,,0.42,WeatherDisplay:10.37,2013-01-30 20:52:00,
2013-01-30 15:57:00,25.8,24.3,29.46,NW,309,15.5,23.0,94,0.00,,,0.42,WeatherDisplay:10.37,2013-01-30 20:57:00,
2013-01-30 16:02:00,25.7,24.5,29.47,NW,307,14.7,21.9,95,0.00,,,0.42,WeatherDisplay:10.37,2013-01-30 21:02:00,
2013-01-30 16:07:00,25.8,24.6,29.47,WNW,302,18.1,21.9,95,0.00,,,0.42,WeatherDisplay:10.37,2013-01-30 21:07:00,
2013-01-30 16:12:00,25.7,24.5,29.48,NW,312,13.8,19.6,95,0.00,,,0.42,WeatherDisplay:10.37,2013-01-30 21:12:00,
2013-01-30 16:17:00,25.7,24.5,29.48,West,270,14.2,17.3,95,0.00,,,0.42,WeatherDisplay:10.37,2013-01-30 21:17:00,
2013-01-30 16:23:00,25.7,24.5,29.48,NW,308,14.0,19.6,95,0.00,,,0.42,WeatherDisplay:10.37,2013-01-30 21:23:00,
2013-01-30 16:28:00,25.5,24.3,29.49,WNW,301,21.3,23.0,95,0.00,,,0.42,WeatherDisplay:10.37,2013-01-30 21:28:00,
2013-01-30 16:33:00,25.2,23.7,29.49,NW,314,20.4,25.3,94,0.00,,,0.42,WeatherDisplay:10.37,2013-01-30 21:33:00,
2013-01-30 16:38:00,25.0,23.8,29.50,NW,314,14.1,20.7,95,0.00,,,0.42,WeatherDisplay:10.37,2013-01-30 21:38:00,
2013-01-30 16:43:00,25.1,23.9,29.50,NW,307,15.4,19.6,95,0.00,,,0.42,WeatherDisplay:10.37,2013-01-30 21:43:00,
2013-01-30 16:48:00,25.0,23.5,29.51,NW,309,13.5,19.6,94,0.00,,,0.42,WeatherDisplay:10.37,2013-01-30 21:48:00,
2013-01-30 16:53:00,25.0,23.8,29.51,NW,311,17.2,21.9,95,0.00,,,0.42,WeatherDisplay:10.37,2013-01-30 21:53:00,
2013-01-30 16:58:00,24.6,23.1,29.51,NW,308,19.3,26.5,94,0.00,,,0.42,WeatherDisplay:10.37,2013-01-30 21:58:00,
2013-01-30 17:03:00,24.3,23.1,29.52,NW,313,18.0,21.9,95,0.00,CLR,,0.42,WeatherDisplay:10.37,2013-01-30 22:03:00,
2013-01-30 17:08:00,24.1,22.6,29.52,WNW,297,18.0,21.9,94,0.00,CLR,,0.42,WeatherDisplay:10.37,2013-01-30 22:08:00,
2013-01-30 17:13:00,24.0,22.5,29.52,WNW,302,15.2,18.4,94,0.00,CLR,,0.42,WeatherDisplay:10.37,2013-01-30 22:13:00,
2013-01-30 17:18:00,23.9,22.4,29.52,NW,311,15.1,18.4,94,0.00,CLR,,0.42,WeatherDisplay:10.37,2013-01-30 22:18:00,
2013-01-30 17:23:00,23.7,22.2,29.53,NW,314,17.2,21.9,94,0.00,CLR,,0.42,WeatherDisplay:10.37,2013-01-30 22:23:00,
2013-01-30 17:28:00,23.6,22.1,29.53,NW,308,14.5,19.6,94,0.00,CLR,,0.42,WeatherDisplay:10.37,2013-01-30 22:28:00,
2013-01-30 17:33:00,23.4,21.9,29.54,NW,309,18.8,21.9,94,0.00,CLR,,0.42,WeatherDisplay:10.37,2013-01-30 22:33:00,
2013-01-30 17:38:00,23.3,21.8,29.54,NW,307,19.1,25.0,94,0.00,CLR,,0.42,WeatherDisplay:10.37,2013-01-30 22:38:00,
2013-01-30 17:43:00,23.2,21.5,29.55,NW,318,16.4,19.6,93,0.00,CLR,,0.42,WeatherDisplay:10.37,2013-01-30 22:43:00,
2013-01-30 17:48:00,23.3,21.6,29.55,NW,312,17.3,19.6,93,0.00,CLR,,0.42,WeatherDisplay:10.37,2013-01-30 22:48:00,
2013-01-30 17:53:00,23.5,21.8,29.55,NW,305,19.0,25.3,93,0.00,CLR,,0.42,WeatherDisplay:10.37,2013-01-30 22:53:00,
2013-01-30 17:58:00,23.4,21.7,29.56,NW,325,16.7,20.7,93,0.00,CLR,,0.42,WeatherDisplay:10.37,2013-01-30 22:58:00,
2013-01-30 18:03:00,23.2,21.2,29.56,NW,307,14.7,19.6,92,0.00,,,0.42,WeatherDisplay:10.37,2013-01-30 23:03:00,
2013-01-30 18:08:00,22.9,20.9,29.56,WNW,288,17.5,20.7,92,0.00,,,0.42,WeatherDisplay:10.37,2013-01-30 23:08:00,
2013-01-30 18:13:00,22.5,20.5,29.57,WNW,302,19.2,23.0,92,0.00,,,0.42,WeatherDisplay:10.37,2013-01-30 23:13:00,
2013-01-30 18:18:00,22.3,20.3,29.57,NW,318,18.5,25.3,92,0.00,,,0.42,WeatherDisplay:10.37,2013-01-30 23:18:00,
2013-01-30 18:23:00,21.8,19.8,29.57,WNW,299,17.7,21.0,92,0.00,,,0.42,WeatherDisplay:10.37,2013-01-30 23:23:00,
2013-01-30 18:28:00,21.6,19.6,29.58,NW,304,19.0,23.0,92,0.00,,,0.42,WeatherDisplay:10.37,2013-01-30 23:28:00,
2013-01-30 18:33:00,21.5,19.5,29.58,NW,315,17.4,21.9,92,0.00,,,0.42,WeatherDisplay:10.37,2013-01-30 23:33:00,
2013-01-30 18:38:00,21.5,19.5,29.58,NW,314,15.6,18.4,92,0.00,,,0.42,WeatherDisplay:10.37,2013-01-30 23:38:00,
2013-01-30 18:43:00,21.5,19.5,29.59,WNW,301,16.4,20.7,92,0.00,,,0.42,WeatherDisplay:10.37,2013-01-30 23:43:00,
2013-01-30 18:48:00,21.5,19.5,29.59,WNW,302,18.7,21.9,92,0.00,,,0.42,WeatherDisplay:10.37,2013-01-30 23:48:00,
2013-01-30 18:53:00,21.2,19.0,29.60,WNW,298,18.2,20.7,91,0.00,,,0.42,WeatherDisplay:10.37,2013-01-30 23:53:00,
2013-01-30 18:58:00,21.0,18.8,29.60,WNW,303,18.8,23.0,91,0.00,,,0.42,WeatherDisplay:10.37,2013-01-30 23:58:00,
2013-01-30 19:03:00,20.8,18.6,29.61,NW,308,16.8,20.0,91,0.00,,,0.42,WeatherDisplay:10.37,2013-01-31 00:03:00,
2013-01-30 19:09:00,20.6,18.4,29.61,WNW,302,16.3,21.9,91,0.00,,,0.42,WeatherDisplay:10.37,2013-01-31 00:09:00,
2013-01-30 19:14:00,20.4,17.9,29.61,NW,304,19.8,23.0,90,0.00,,,0.42,WeatherDisplay:10.37,2013-01-31 00:14:00,
2013-01-30 19:19:00,20.3,17.6,29.62,NW,308,16.8,23.0,89,0.00,,,0.42,WeatherDisplay:10.37,2013-01-31 00:19:00,
2013-01-30 19:24:00,20.1,17.1,29.62,WNW,297,18.2,21.9,88,0.00,,,0.42,WeatherDisplay:10.37,2013-01-31 00:24:00,
2013-01-30 19:29:00,19.9,16.9,29.62,NW,306,16.9,20.7,88,0.00,,,0.42,WeatherDisplay:10.37,2013-01-31 00:29:00,
2013-01-30 19:34:00,19.7,16.5,29.63,WNW,300,16.8,19.6,87,0.00,,,0.42,WeatherDisplay:10.37,2013-01-31 00:34:00,
2013-01-30 19:39:00,19.6,16.4,29.63,NW,314,17.2,19.6,87,0.00,,,0.42,WeatherDisplay:10.37,2013-01-31 00:39:00,
2013-01-30 19:44:00,19.4,16.2,29.63,NW,308,16.6,19.6,87,0.00,,,0.42,WeatherDisplay:10.37,2013-01-31 00:44:00,
2013-01-30 19:49:00,19.4,16.2,29.64,WNW,297,17.9,19.6,87,0.00,,,0.42,WeatherDisplay:10.37,2013-01-31 00:49:00,
2013-01-30 19:54:00,19.2,16.0,29.64,WNW,302,18.5,21.9,87,0.00,,,0.42,WeatherDisplay:10.37,2013-01-31 00:54:00,
2013-01-30 19:59:00,19.1,15.6,29.64,NW,305,19.4,21.9,86,0.00,,,0.42,WeatherDisplay:10.37,2013-01-31 00:59:00,
2013-01-30 20:04:00,19.0,15.2,29.65,WNW,297,21.4,26.5,85,0.00,CLR,,0.42,WeatherDisplay:10.37,2013-01-31 01:04:00,
2013-01-30 20:09:00,19.0,15.2,29.65,NW,304,17.1,23.0,85,0.00,CLR,,0.42,WeatherDisplay:10.37,2013-01-31 01:09:00,
2013-01-30 20:14:00,19.0,15.2,29.65,WNW,299,20.1,23.0,85,0.00,CLR,,0.42,WeatherDisplay:10.37,2013-01-31 01:14:00,
2013-01-30 20:19:00,19.0,15.2,29.65,WNW,302,19.5,21.9,85,0.00,CLR,,0.42,WeatherDisplay:10.37,2013-01-31 01:19:00,
2013-01-30 20:31:00,19.1,15.3,29.66,WNW,302,20.2,23.0,85,0.00,RA,,0.42,WeatherDisplay:10.37,2013-01-31 01:31:00,
2013-01-30 20:37:00,19.2,15.4,29.67,WNW,302,17.1,21.9,85,0.00,RA,,0.42,WeatherDisplay:10.37,2013-01-31 01:37:00,
2013-01-30 20:42:00,19.4,15.9,29.67,NW,310,16.2,19.6,86,0.00,CLR,,0.42,WeatherDisplay:10.37,2013-01-31 01:42:00,
2013-01-30 20:47:00,19.6,15.8,29.67,WNW,301,16.9,27.6,85,0.00,CLR,,0.42,WeatherDisplay:10.37,2013-01-31 01:47:00,
2013-01-30 20:52:00,19.6,15.8,29.67,WNW,300,17.1,24.2,85,0.00,CLR,,0.42,WeatherDisplay:10.37,2013-01-31 01:52:00,
2013-01-30 20:57:00,19.6,16.1,29.67,WNW,293,14.6,16.1,86,0.00,CLR,,0.42,WeatherDisplay:10.37,2013-01-31 01:57:00,
2013-01-30 21:02:00,19.6,15.8,29.68,WNW,288,18.3,23.0,85,0.00,CLR,,0.42,WeatherDisplay:10.37,2013-01-31 02:02:00,
2013-01-30 21:07:00,19.6,15.8,29.68,NW,304,18.9,23.0,85,0.00,CLR,,0.42,WeatherDisplay:10.37,2013-01-31 02:07:00,
2013-01-30 21:12:00,19.5,16.0,29.68,WNW,301,19.0,20.7,86,0.00,CLR,,0.42,WeatherDisplay:10.37,2013-01-31 02:12:00,
2013-01-30 21:17:00,19.5,16.0,29.68,WNW,295,14.1,17.3,86,0.00,CLR,,0.42,WeatherDisplay:10.37,2013-01-31 02:17:00,
2013-01-30 21:22:00,19.5,16.0,29.69,NW,316,20.1,24.2,86,0.00,CLR,,0.42,WeatherDisplay:10.37,2013-01-31 02:22:00,
2013-01-30 21:28:00,19.5,15.7,29.69,WNW,299,19.7,24.2,85,0.00,CLR,,0.42,WeatherDisplay:10.37,2013-01-31 02:28:00,
2013-01-30 21:33:00,19.5,15.7,29.69,NW,308,18.9,25.3,85,0.00,CLR,,0.42,WeatherDisplay:10.37,2013-01-31 02:33:00,
2013-01-30 21:38:00,19.5,15.7,29.69,WNW,302,18.7,20.7,85,0.00,CLR,,0.42,WeatherDisplay:10.37,2013-01-31 02:38:00,
2013-01-30 21:43:00,19.5,15.5,29.70,WNW,301,17.3,23.0,84,0.00,CLR,,0.42,WeatherDisplay:10.37,2013-01-31 02:43:00,
2013-01-30 21:48:00,19.6,15.6,29.70,NW,305,19.7,25.3,84,0.00,CLR,,0.42,WeatherDisplay:10.37,2013-01-31 02:48:00,
2013-01-30 21:53:00,19.5,15.5,29.70,WNW,295,16.9,20.7,84,0.00,CLR,,0.42,WeatherDisplay:10.37,2013-01-31 02:53:00,
2013-01-30 21:58:00,19.5,15.5,29.70,NW,305,16.0,19.6,84,0.00,CLR,,0.42,WeatherDisplay:10.37,2013-01-31 02:58:00,
2013-01-30 22:03:00,19.5,15.5,29.70,WNW,297,16.1,19.6,84,0.00,CLR,,0.42,WeatherDisplay:10.37,2013-01-31 03:03:00,
2013-01-30 22:08:00,19.4,15.1,29.71,NW,304,16.1,21.9,83,0.00,CLR,,0.42,WeatherDisplay:10.37,2013-01-31 03:08:00,
2013-01-30 22:13:00,19.3,15.0,29.70,WNW,295,19.2,25.3,83,0.00,CLR,,0.42,WeatherDisplay:10.37,2013-01-31 03:13:00,
2013-01-30 22:18:00,19.3,15.0,29.71,WNW,302,17.2,19.6,83,0.00,CLR,,0.42,WeatherDisplay:10.37,2013-01-31 03:18:00,
2013-01-30 22:23:00,19.2,14.9,29.72,NW,304,17.0,21.0,83,0.00,CLR,,0.42,WeatherDisplay:10.37,2013-01-31 03:23:00,
2013-01-30 22:29:00,19.0,14.4,29.72,NW,304,20.1,24.2,82,0.00,CLR,,0.42,WeatherDisplay:10.37,2013-01-31 03:29:00,
2013-01-30 22:34:00,18.9,14.6,29.72,WNW,295,18.8,26.5,83,0.00,CLR,,0.42,WeatherDisplay:10.37,2013-01-31 03:34:00,
2013-01-30 22:39:00,18.7,14.4,29.72,WNW,297,15.5,20.7,83,0.00,CLR,,0.42,WeatherDisplay:10.37,2013-01-31 03:39:00,
2013-01-30 22:44:00,18.4,13.8,29.72,WNW,302,15.3,19.6,82,0.00,CLR,,0.42,WeatherDisplay:10.37,2013-01-31 03:44:00,
2013-01-30 22:49:00,18.0,13.2,29.73,WNW,294,17.6,24.2,81,0.00,CLR,,0.42,WeatherDisplay:10.37,2013-01-31 03:49:00,
2013-01-30 22:54:00,17.8,13.0,29.73,NW,308,16.9,23.0,81,0.00,CLR,,0.42,WeatherDisplay:10.37,2013-01-31 03:54:00,
2013-01-30 22:59:00,17.7,12.9,29.73,NW,308,17.0,24.2,81,0.00,CLR,,0.42,WeatherDisplay:10.37,2013-01-31 03:59:00,
2013-01-30 23:04:00,17.7,12.9,29.74,WNW,293,15.9,19.6,81,0.00,CLR,,0.42,WeatherDisplay:10.37,2013-01-31 04:04:00,
2013-01-30 23:09:00,17.7,13.1,29.73,WNW,293,16.8,21.9,82,0.00,CLR,,0.42,WeatherDisplay:10.37,2013-01-31 04:09:00,
2013-01-30 23:14:00,17.5,12.9,29.74,WNW,293,17.8,20.7,82,0.00,CLR,,0.42,WeatherDisplay:10.37,2013-01-31 04:14:00,
2013-01-30 23:19:00,17.5,12.9,29.74,NW,308,14.1,19.6,82,0.00,CLR,,0.42,WeatherDisplay:10.37,2013-01-31 04:19:00,
2013-01-30 23:24:00,17.4,12.8,29.74,NW,308,15.5,18.4,82,0.00,CLR,,0.42,WeatherDisplay:10.37,2013-01-31 04:24:00,
2013-01-30 23:29:00,17.3,12.7,29.74,WNW,301,12.9,18.4,82,0.00,CLR,,0.42,WeatherDisplay:10.37,2013-01-31 04:29:00,
2013-01-30 23:34:00,17.3,12.5,29.74,NW,314,16.9,19.6,81,0.00,CLR,,0.42,WeatherDisplay:10.37,2013-01-31 04:34:00,
2013-01-30 23:39:00,17.3,12.7,29.74,NW,309,12.9,16.1,82,0.00,CLR,,0.42,WeatherDisplay:10.37,2013-01-31 04:39:00,
2013-01-30 23:44:00,17.5,13.2,29.74,WNW,299,12.8,14.0,83,0.00,CLR,,0.42,WeatherDisplay:10.37,2013-01-31 04:44:00,
2013-01-30 23:49:00,17.6,13.0,29.75,NW,312,14.1,17.3,82,0.00,CLR,,0.42,WeatherDisplay:10.37,2013-01-31 04:49:00,
2013-01-30 23:54:00,17.7,13.7,29.75,WNW,297,13.5,17.3,84,0.00,CLR,,0.42,WeatherDisplay:10.37,2013-01-31 04:54:00,
2013-01-30 23:59:00,17.4,13.9,29.76,WNW,282,12.5,17.0,86,0.00,CLR,,0.42,WeatherDisplay:10.37,2013-01-31 04:59:00,